sensor_id;sensor_type;location;lat;lon;timestamp;temperature;humidity
17918;DHT22;9084;50.956;3.106;2022-07-04T00:02:01;15.00;8.20
17918;DHT22;9084;50.956;3.106;2022-07-04T00:04:27;15.00;10.50
17918;DHT22;9084;50.956;3.106;2022-07-04T00:06:53;14.90;11.50
17918;DHT22;9084;50.956;3.106;2022-07-04T00:09:18;15.00;12.30
17918;DHT22;9084;50.956;3.106;2022-07-04T00:11:44;14.90;12.20
17918;DHT22;9084;50.956;3.106;2022-07-04T00:14:12;14.90;13.70
17918;DHT22;9084;50.956;3.106;2022-07-04T00:16:40;14.80;14.10
17918;DHT22;9084;50.956;3.106;2022-07-04T00:19:06;14.90;14.00
17918;DHT22;9084;50.956;3.106;2022-07-04T00:21:31;14.80;14.80
17918;DHT22;9084;50.956;3.106;2022-07-04T00:23:57;14.80;16.10
17918;DHT22;9084;50.956;3.106;2022-07-04T00:26:23;14.80;16.60
17918;DHT22;9084;50.956;3.106;2022-07-04T00:28:48;14.70;17.10
17918;DHT22;9084;50.956;3.106;2022-07-04T00:31:14;14.70;16.30
17918;DHT22;9084;50.956;3.106;2022-07-04T00:33:42;14.70;17.10
17918;DHT22;9084;50.956;3.106;2022-07-04T00:36:07;14.70;16.90
17918;DHT22;9084;50.956;3.106;2022-07-04T00:38:33;14.70;17.60
17918;DHT22;9084;50.956;3.106;2022-07-04T00:40:59;14.60;19.20
17918;DHT22;9084;50.956;3.106;2022-07-04T00:43:27;14.60;22.00
17918;DHT22;9084;50.956;3.106;2022-07-04T00:45:54;14.60;22.50
17918;DHT22;9084;50.956;3.106;2022-07-04T00:48:20;14.60;22.50
17918;DHT22;9084;50.956;3.106;2022-07-04T00:50:48;14.50;23.00
17918;DHT22;9084;50.956;3.106;2022-07-04T00:53:14;14.50;24.80
17918;DHT22;9084;50.956;3.106;2022-07-04T00:55:44;14.40;24.50
17918;DHT22;9084;50.956;3.106;2022-07-04T00:58:13;14.40;25.10
17918;DHT22;9084;50.956;3.106;2022-07-04T01:00:38;14.40;24.40
17918;DHT22;9084;50.956;3.106;2022-07-04T01:03:04;14.40;25.40
17918;DHT22;9084;50.956;3.106;2022-07-04T01:05:34;14.40;25.40
17918;DHT22;9084;50.956;3.106;2022-07-04T01:08:03;14.40;25.50
17918;DHT22;9084;50.956;3.106;2022-07-04T01:10:30;14.40;27.10
17918;DHT22;9084;50.956;3.106;2022-07-04T01:12:55;14.30;26.20
17918;DHT22;9084;50.956;3.106;2022-07-04T01:15:24;14.30;27.50
17918;DHT22;9084;50.956;3.106;2022-07-04T01:17:54;14.20;28.30
17918;DHT22;9084;50.956;3.106;2022-07-04T01:20:20;14.20;28.80
17918;DHT22;9084;50.956;3.106;2022-07-04T01:22:49;14.20;29.80
17918;DHT22;9084;50.956;3.106;2022-07-04T01:25:17;14.20;31.60
17918;DHT22;9084;50.956;3.106;2022-07-04T01:27:43;14.20;29.60
17918;DHT22;9084;50.956;3.106;2022-07-04T01:30:11;14.10;32.10
17918;DHT22;9084;50.956;3.106;2022-07-04T01:32:38;14.10;34.10
17918;DHT22;9084;50.956;3.106;2022-07-04T01:35:07;14.10;34.00
17918;DHT22;9084;50.956;3.106;2022-07-04T01:37:32;14.10;33.70
17918;DHT22;9084;50.956;3.106;2022-07-04T01:39:58;14.00;34.70
17918;DHT22;9084;50.956;3.106;2022-07-04T01:42:24;14.00;35.80
17918;DHT22;9084;50.956;3.106;2022-07-04T01:44:49;14.00;34.60
17918;DHT22;9084;50.956;3.106;2022-07-04T01:47:17;14.00;34.10
17918;DHT22;9084;50.956;3.106;2022-07-04T01:49:43;14.00;35.00
17918;DHT22;9084;50.956;3.106;2022-07-04T01:52:11;14.00;37.50
17918;DHT22;9084;50.956;3.106;2022-07-04T01:54:36;14.00;37.40
17918;DHT22;9084;50.956;3.106;2022-07-04T01:57:03;13.90;38.40
17918;DHT22;9084;50.956;3.106;2022-07-04T01:59:29;13.90;38.90
17918;DHT22;9084;50.956;3.106;2022-07-04T02:02:15;13.90;38.90
17918;DHT22;9084;50.956;3.106;2022-07-04T02:04:42;13.90;38.80
17918;DHT22;9084;50.956;3.106;2022-07-04T02:07:08;13.80;42.10
17918;DHT22;9084;50.956;3.106;2022-07-04T02:09:34;13.90;42.60
17918;DHT22;9084;50.956;3.106;2022-07-04T02:12:00;13.80;43.60
17918;DHT22;9084;50.956;3.106;2022-07-04T02:14:44;13.80;45.80
17918;DHT22;9084;50.956;3.106;2022-07-04T02:17:10;13.80;47.00
17918;DHT22;9084;50.956;3.106;2022-07-04T02:19:36;13.80;47.80
17918;DHT22;9084;50.956;3.106;2022-07-04T02:22:02;13.80;47.90
17918;DHT22;9084;50.956;3.106;2022-07-04T02:24:28;13.80;46.70
17918;DHT22;9084;50.956;3.106;2022-07-04T02:26:58;13.70;46.60
17918;DHT22;9084;50.956;3.106;2022-07-04T02:29:27;13.70;48.60
17918;DHT22;9084;50.956;3.106;2022-07-04T02:31:53;13.70;48.20
17918;DHT22;9084;50.956;3.106;2022-07-04T02:34:19;13.70;48.80
17918;DHT22;9084;50.956;3.106;2022-07-04T02:36:48;13.70;52.80
17918;DHT22;9084;50.956;3.106;2022-07-04T02:39:15;13.80;54.40
17918;DHT22;9084;50.956;3.106;2022-07-04T02:41:41;13.70;53.80
17918;DHT22;9084;50.956;3.106;2022-07-04T02:44:07;13.70;51.00
17918;DHT22;9084;50.956;3.106;2022-07-04T02:46:35;13.70;51.30
17918;DHT22;9084;50.956;3.106;2022-07-04T02:49:02;13.70;50.40
17918;DHT22;9084;50.956;3.106;2022-07-04T02:51:28;13.60;52.80
17918;DHT22;9084;50.956;3.106;2022-07-04T02:53:56;13.60;56.70
17918;DHT22;9084;50.956;3.106;2022-07-04T02:56:22;13.60;58.70
17918;DHT22;9084;50.956;3.106;2022-07-04T02:58:48;13.60;60.50
17918;DHT22;9084;50.956;3.106;2022-07-04T03:01:13;13.60;65.80
17918;DHT22;9084;50.956;3.106;2022-07-04T03:03:40;13.50;71.30
17918;DHT22;9084;50.956;3.106;2022-07-04T03:06:08;13.50;73.20
17918;DHT22;9084;50.956;3.106;2022-07-04T03:08:35;13.50;77.60
17918;DHT22;9084;50.956;3.106;2022-07-04T03:11:00;13.50;75.50
17918;DHT22;9084;50.956;3.106;2022-07-04T03:13:26;13.50;76.60
17918;DHT22;9084;50.956;3.106;2022-07-04T03:15:52;13.50;76.00
17918;DHT22;9084;50.956;3.106;2022-07-04T03:18:21;13.60;77.20
17918;DHT22;9084;50.956;3.106;2022-07-04T03:20:47;13.50;77.60
17918;DHT22;9084;50.956;3.106;2022-07-04T03:23:13;13.50;78.40
17918;DHT22;9084;50.956;3.106;2022-07-04T03:25:42;13.50;79.60
17918;DHT22;9084;50.956;3.106;2022-07-04T03:28:10;13.50;80.00
17918;DHT22;9084;50.956;3.106;2022-07-04T03:30:36;13.50;82.10
17918;DHT22;9084;50.956;3.106;2022-07-04T03:33:02;13.50;83.30
17918;DHT22;9084;50.956;3.106;2022-07-04T03:35:30;13.40;84.30
17918;DHT22;9084;50.956;3.106;2022-07-04T03:37:56;13.40;88.90
17918;DHT22;9084;50.956;3.106;2022-07-04T03:40:24;13.40;90.90
17918;DHT22;9084;50.956;3.106;2022-07-04T03:42:56;13.40;92.10
17918;DHT22;9084;50.956;3.106;2022-07-04T03:45:22;13.40;92.10
17918;DHT22;9084;50.956;3.106;2022-07-04T03:47:48;13.40;92.20
17918;DHT22;9084;50.956;3.106;2022-07-04T03:50:14;13.40;91.00
17918;DHT22;9084;50.956;3.106;2022-07-04T03:52:40;13.40;92.80
17918;DHT22;9084;50.956;3.106;2022-07-04T03:55:06;13.40;91.90
17918;DHT22;9084;50.956;3.106;2022-07-04T03:57:34;13.40;90.60
17918;DHT22;9084;50.956;3.106;2022-07-04T04:00:00;13.40;90.60
17918;DHT22;9084;50.956;3.106;2022-07-04T04:02:25;13.40;90.60
17918;DHT22;9084;50.956;3.106;2022-07-04T04:04:51;13.40;90.60
17918;DHT22;9084;50.956;3.106;2022-07-04T04:07:36;13.40;91.50
17918;DHT22;9084;50.956;3.106;2022-07-04T04:10:02;13.40;92.20
17918;DHT22;9084;50.956;3.106;2022-07-04T04:12:30;13.40;91.60
17918;DHT22;9084;50.956;3.106;2022-07-04T04:14:55;13.40;92.50
17918;DHT22;9084;50.956;3.106;2022-07-04T04:17:23;13.50;92.30
17918;DHT22;9084;50.956;3.106;2022-07-04T04:19:51;13.40;92.60
17918;DHT22;9084;50.956;3.106;2022-07-04T04:22:16;13.40;93.20
17918;DHT22;9084;50.956;3.106;2022-07-04T04:24:44;13.40;93.70
17918;DHT22;9084;50.956;3.106;2022-07-04T04:27:10;13.50;92.60
17918;DHT22;9084;50.956;3.106;2022-07-04T04:29:35;13.50;90.90
17918;DHT22;9084;50.956;3.106;2022-07-04T04:32:03;13.50;92.10
17918;DHT22;9084;50.956;3.106;2022-07-04T04:34:29;13.50;92.50
17918;DHT22;9084;50.956;3.106;2022-07-04T04:36:55;13.60;91.60
17918;DHT22;9084;50.956;3.106;2022-07-04T04:39:21;13.60;90.90
17918;DHT22;9084;50.956;3.106;2022-07-04T04:41:51;13.60;91.40
17918;DHT22;9084;50.956;3.106;2022-07-04T04:44:20;13.70;92.00
17918;DHT22;9084;50.956;3.106;2022-07-04T04:46:46;13.70;93.20
17918;DHT22;9084;50.956;3.106;2022-07-04T04:49:12;13.80;92.80
17918;DHT22;9084;50.956;3.106;2022-07-04T04:51:40;13.90;93.00
17918;DHT22;9084;50.956;3.106;2022-07-04T04:54:08;13.90;92.50
17918;DHT22;9084;50.956;3.106;2022-07-04T04:56:34;14.00;93.30
17918;DHT22;9084;50.956;3.106;2022-07-04T04:59:00;14.00;94.00
17918;DHT22;9084;50.956;3.106;2022-07-04T05:01:30;14.10;94.20
17918;DHT22;9084;50.956;3.106;2022-07-04T05:03:55;14.10;94.20
17918;DHT22;9084;50.956;3.106;2022-07-04T05:06:22;14.20;95.10
17918;DHT22;9084;50.956;3.106;2022-07-04T05:08:47;14.30;96.00
17918;DHT22;9084;50.956;3.106;2022-07-04T05:11:13;14.30;96.70
17918;DHT22;9084;50.956;3.106;2022-07-04T05:13:39;14.40;97.50
17918;DHT22;9084;50.956;3.106;2022-07-04T05:16:07;14.40;98.00
17918;DHT22;9084;50.956;3.106;2022-07-04T05:18:35;14.40;97.20
17918;DHT22;9084;50.956;3.106;2022-07-04T05:21:01;14.50;98.10
17918;DHT22;9084;50.956;3.106;2022-07-04T05:23:27;14.50;98.70
17918;DHT22;9084;50.956;3.106;2022-07-04T05:25:53;14.60;99.30
17918;DHT22;9084;50.956;3.106;2022-07-04T05:28:22;14.60;98.80
17918;DHT22;9084;50.956;3.106;2022-07-04T05:30:47;14.70;98.40
17918;DHT22;9084;50.956;3.106;2022-07-04T05:33:13;14.70;97.00
17918;DHT22;9084;50.956;3.106;2022-07-04T05:35:43;14.70;97.60
17918;DHT22;9084;50.956;3.106;2022-07-04T05:38:09;14.80;96.90
17918;DHT22;9084;50.956;3.106;2022-07-04T05:40:36;14.80;97.30
17918;DHT22;9084;50.956;3.106;2022-07-04T05:43:03;14.90;97.70
17918;DHT22;9084;50.956;3.106;2022-07-04T05:45:28;14.90;97.50
17918;DHT22;9084;50.956;3.106;2022-07-04T05:47:54;14.90;97.50
17918;DHT22;9084;50.956;3.106;2022-07-04T05:50:19;15.00;97.60
17918;DHT22;9084;50.956;3.106;2022-07-04T05:52:45;15.10;99.90
17918;DHT22;9084;50.956;3.106;2022-07-04T05:55:14;15.20;99.90
17918;DHT22;9084;50.956;3.106;2022-07-04T05:57:42;15.20;99.90
17918;DHT22;9084;50.956;3.106;2022-07-04T06:00:08;15.30;99.90
17918;DHT22;9084;50.956;3.106;2022-07-04T06:02:34;15.40;99.90
17918;DHT22;9084;50.956;3.106;2022-07-04T06:04:59;15.50;99.90
17918;DHT22;9084;50.956;3.106;2022-07-04T06:07:26;15.50;99.90
17918;DHT22;9084;50.956;3.106;2022-07-04T06:09:52;15.60;99.90
17918;DHT22;9084;50.956;3.106;2022-07-04T06:12:17;15.70;99.90
17918;DHT22;9084;50.956;3.106;2022-07-04T06:14:43;15.70;99.90
17918;DHT22;9084;50.956;3.106;2022-07-04T06:17:09;15.80;99.90
17918;DHT22;9084;50.956;3.106;2022-07-04T06:19:34;15.90;99.90
17918;DHT22;9084;50.956;3.106;2022-07-04T06:22:00;15.90;99.90
17918;DHT22;9084;50.956;3.106;2022-07-04T06:24:28;16.00;99.90
17918;DHT22;9084;50.956;3.106;2022-07-04T06:26:56;16.10;99.90
17918;DHT22;9084;50.956;3.106;2022-07-04T06:29:21;16.20;99.90
17918;DHT22;9084;50.956;3.106;2022-07-04T06:31:49;16.30;99.90
17918;DHT22;9084;50.956;3.106;2022-07-04T06:34:17;16.40;99.90
17918;DHT22;9084;50.956;3.106;2022-07-04T06:37:02;16.40;99.90
17918;DHT22;9084;50.956;3.106;2022-07-04T06:39:29;16.50;99.90
17918;DHT22;9084;50.956;3.106;2022-07-04T06:41:55;16.50;99.90
17918;DHT22;9084;50.956;3.106;2022-07-04T06:44:21;16.60;99.90
17918;DHT22;9084;50.956;3.106;2022-07-04T06:46:46;16.70;99.90
17918;DHT22;9084;50.956;3.106;2022-07-04T06:49:12;16.70;99.90
17918;DHT22;9084;50.956;3.106;2022-07-04T06:51:40;16.80;99.90
17918;DHT22;9084;50.956;3.106;2022-07-04T06:54:07;16.80;99.90
17918;DHT22;9084;50.956;3.106;2022-07-04T06:56:33;16.90;99.90
17918;DHT22;9084;50.956;3.106;2022-07-04T06:58:59;16.90;99.90
17918;DHT22;9084;50.956;3.106;2022-07-04T07:01:25;17.00;99.90
17918;DHT22;9084;50.956;3.106;2022-07-04T07:03:50;17.20;99.90
17918;DHT22;9084;50.956;3.106;2022-07-04T07:06:21;17.30;99.50
17918;DHT22;9084;50.956;3.106;2022-07-04T07:08:49;17.30;98.20
17918;DHT22;9084;50.956;3.106;2022-07-04T07:11:15;17.40;95.70
17918;DHT22;9084;50.956;3.106;2022-07-04T07:13:49;17.50;95.10
17918;DHT22;9084;50.956;3.106;2022-07-04T07:16:16;17.60;91.00
17918;DHT22;9084;50.956;3.106;2022-07-04T07:18:43;17.70;92.10
17918;DHT22;9084;50.956;3.106;2022-07-04T07:21:09;17.70;90.20
17918;DHT22;9084;50.956;3.106;2022-07-04T07:23:39;17.80;85.50
17918;DHT22;9084;50.956;3.106;2022-07-04T07:26:06;17.90;79.80
17918;DHT22;9084;50.956;3.106;2022-07-04T07:28:32;18.00;79.20
17918;DHT22;9084;50.956;3.106;2022-07-04T07:31:03;18.10;75.80
17918;DHT22;9084;50.956;3.106;2022-07-04T07:33:29;18.20;65.50
17918;DHT22;9084;50.956;3.106;2022-07-04T07:35:55;18.30;67.20
17918;DHT22;9084;50.956;3.106;2022-07-04T07:38:20;18.30;66.20
17918;DHT22;9084;50.956;3.106;2022-07-04T07:40:49;18.40;59.60
17918;DHT22;9084;50.956;3.106;2022-07-04T07:43:21;18.50;53.00
17918;DHT22;9084;50.956;3.106;2022-07-04T07:45:46;18.60;56.00
17918;DHT22;9084;50.956;3.106;2022-07-04T07:48:12;18.70;48.90
17918;DHT22;9084;50.956;3.106;2022-07-04T07:50:37;18.70;46.70
17918;DHT22;9084;50.956;3.106;2022-07-04T07:53:05;18.90;46.70
17918;DHT22;9084;50.956;3.106;2022-07-04T07:55:34;18.90;36.50
17918;DHT22;9084;50.956;3.106;2022-07-04T07:58:00;19.10;30.00
17918;DHT22;9084;50.956;3.106;2022-07-04T08:00:27;19.30;24.30
17918;DHT22;9084;50.956;3.106;2022-07-04T08:02:53;19.50;16.70
17918;DHT22;9084;50.956;3.106;2022-07-04T08:05:42;19.70;14.50
17918;DHT22;9084;50.956;3.106;2022-07-04T08:08:08;19.90;10.70
17918;DHT22;9084;50.956;3.106;2022-07-04T08:10:37;20.10;1.00
17918;DHT22;9084;50.956;3.106;2022-07-04T08:13:04;20.30;1.00
17918;DHT22;9084;50.956;3.106;2022-07-04T08:15:29;20.50;1.00
17918;DHT22;9084;50.956;3.106;2022-07-04T08:17:56;20.40;1.00
17918;DHT22;9084;50.956;3.106;2022-07-04T08:20:21;20.40;1.00
17918;DHT22;9084;50.956;3.106;2022-07-04T08:22:50;20.40;1.00
17918;DHT22;9084;50.956;3.106;2022-07-04T08:25:15;20.30;1.00
17918;DHT22;9084;50.956;3.106;2022-07-04T08:27:43;20.20;1.00
17918;DHT22;9084;50.956;3.106;2022-07-04T08:30:09;20.10;1.00
17918;DHT22;9084;50.956;3.106;2022-07-04T08:32:35;20.10;1.00
17918;DHT22;9084;50.956;3.106;2022-07-04T08:35:04;20.20;1.00
17918;DHT22;9084;50.956;3.106;2022-07-04T08:37:34;20.30;1.00
17918;DHT22;9084;50.956;3.106;2022-07-04T08:40:05;20.40;1.00
17918;DHT22;9084;50.956;3.106;2022-07-04T08:42:37;20.60;1.00
17918;DHT22;9084;50.956;3.106;2022-07-04T08:45:03;20.80;1.00
17918;DHT22;9084;50.956;3.106;2022-07-04T08:47:32;21.00;1.00
17918;DHT22;9084;50.956;3.106;2022-07-04T08:50:12;21.20;1.00
17918;DHT22;9084;50.956;3.106;2022-07-04T08:52:39;21.30;1.00
17918;DHT22;9084;50.956;3.106;2022-07-04T08:55:08;21.50;1.00
17918;DHT22;9084;50.956;3.106;2022-07-04T08:57:54;21.70;1.00
17918;DHT22;9084;50.956;3.106;2022-07-04T09:00:40;21.90;1.00
17918;DHT22;9084;50.956;3.106;2022-07-04T09:03:06;22.10;1.00
17918;DHT22;9084;50.956;3.106;2022-07-04T09:05:33;22.20;1.00
17918;DHT22;9084;50.956;3.106;2022-07-04T09:08:02;22.30;1.00
17918;DHT22;9084;50.956;3.106;2022-07-04T09:10:31;22.30;1.00
17918;DHT22;9084;50.956;3.106;2022-07-04T09:13:00;22.30;1.00
17918;DHT22;9084;50.956;3.106;2022-07-04T09:15:25;22.40;1.00
17918;DHT22;9084;50.956;3.106;2022-07-04T09:17:52;22.50;1.00
17918;DHT22;9084;50.956;3.106;2022-07-04T09:20:22;22.80;1.00
17918;DHT22;9084;50.956;3.106;2022-07-04T09:22:49;23.10;1.00
17918;DHT22;9084;50.956;3.106;2022-07-04T09:25:17;23.10;1.00
17918;DHT22;9084;50.956;3.106;2022-07-04T09:27:48;23.10;1.00
17918;DHT22;9084;50.956;3.106;2022-07-04T09:30:18;23.00;1.00
17918;DHT22;9084;50.956;3.106;2022-07-04T09:32:46;23.00;1.00
17918;DHT22;9084;50.956;3.106;2022-07-04T09:35:33;23.10;1.00
17918;DHT22;9084;50.956;3.106;2022-07-04T09:38:03;23.30;1.00
17918;DHT22;9084;50.956;3.106;2022-07-04T09:40:30;23.40;1.00
17918;DHT22;9084;50.956;3.106;2022-07-04T09:42:59;23.50;1.00
17918;DHT22;9084;50.956;3.106;2022-07-04T09:45:26;23.60;1.00
17918;DHT22;9084;50.956;3.106;2022-07-04T09:47:58;23.70;1.00
17918;DHT22;9084;50.956;3.106;2022-07-04T09:50:26;23.70;1.00
17918;DHT22;9084;50.956;3.106;2022-07-04T09:55:29;23.90;1.00
17918;DHT22;9084;50.956;3.106;2022-07-04T09:58:02;24.00;1.00
17918;DHT22;9084;50.956;3.106;2022-07-04T10:00:31;24.10;99.90
17918;DHT22;9084;50.956;3.106;2022-07-04T10:03:24;24.30;99.90
17918;DHT22;9084;50.956;3.106;2022-07-04T10:08:29;24.00;40.70
17918;DHT22;9084;50.956;3.106;2022-07-04T10:10:58;23.80;99.90
17918;DHT22;9084;50.956;3.106;2022-07-04T10:13:24;23.70;99.90
17918;DHT22;9084;50.956;3.106;2022-07-04T10:15:50;23.70;1.00
17918;DHT22;9084;50.956;3.106;2022-07-04T10:18:19;23.80;1.00
17918;DHT22;9084;50.956;3.106;2022-07-04T10:20:45;23.80;1.00
17918;DHT22;9084;50.956;3.106;2022-07-04T10:23:12;23.90;99.90
17918;DHT22;9084;50.956;3.106;2022-07-04T10:25:38;24.10;99.90
17918;DHT22;9084;50.956;3.106;2022-07-04T10:28:04;24.10;99.90
17918;DHT22;9084;50.956;3.106;2022-07-04T10:30:37;24.00;89.90
17918;DHT22;9084;50.956;3.106;2022-07-04T10:33:05;23.80;99.90
17918;DHT22;9084;50.956;3.106;2022-07-04T10:36:04;23.70;99.90
17918;DHT22;9084;50.956;3.106;2022-07-04T10:38:32;23.60;99.90
17918;DHT22;9084;50.956;3.106;2022-07-04T10:41:04;23.50;99.90
17918;DHT22;9084;50.956;3.106;2022-07-04T10:48:31;23.40;99.90
17918;DHT22;9084;50.956;3.106;2022-07-04T10:51:06;23.50;99.90
17918;DHT22;9084;50.956;3.106;2022-07-04T10:53:58;23.50;99.90
17918;DHT22;9084;50.956;3.106;2022-07-04T10:58:54;23.10;1.00
17918;DHT22;9084;50.956;3.106;2022-07-04T11:01:20;23.20;1.00
17918;DHT22;9084;50.956;3.106;2022-07-04T11:03:53;23.30;99.90
17918;DHT22;9084;50.956;3.106;2022-07-04T11:09:22;23.30;99.90
17918;DHT22;9084;50.956;3.106;2022-07-04T11:11:59;23.30;99.90
17918;DHT22;9084;50.956;3.106;2022-07-04T11:17:09;23.70;1.00
17918;DHT22;9084;50.956;3.106;2022-07-04T11:19:38;23.70;1.00
17918;DHT22;9084;50.956;3.106;2022-07-04T11:22:08;23.70;1.00
17918;DHT22;9084;50.956;3.106;2022-07-04T11:24:38;23.50;1.00
17918;DHT22;9084;50.956;3.106;2022-07-04T11:27:07;23.40;99.90
17918;DHT22;9084;50.956;3.106;2022-07-04T11:29:36;23.30;99.90
17918;DHT22;9084;50.956;3.106;2022-07-04T11:32:02;23.40;99.90
17918;DHT22;9084;50.956;3.106;2022-07-04T11:34:34;23.50;99.90
17918;DHT22;9084;50.956;3.106;2022-07-04T11:37:02;23.50;1.00
17918;DHT22;9084;50.956;3.106;2022-07-04T11:39:31;23.60;1.00
17918;DHT22;9084;50.956;3.106;2022-07-04T11:41:58;23.80;1.00
17918;DHT22;9084;50.956;3.106;2022-07-04T11:44:43;24.00;1.00
17918;DHT22;9084;50.956;3.106;2022-07-04T11:47:45;24.30;1.00
17918;DHT22;9084;50.956;3.106;2022-07-04T11:50:13;24.50;1.00
17918;DHT22;9084;50.956;3.106;2022-07-04T11:52:49;24.70;1.00
17918;DHT22;9084;50.956;3.106;2022-07-04T11:55:19;25.00;1.00
17918;DHT22;9084;50.956;3.106;2022-07-04T11:57:50;25.20;1.00
17918;DHT22;9084;50.956;3.106;2022-07-04T12:00:21;25.40;1.00
17918;DHT22;9084;50.956;3.106;2022-07-04T12:02:52;25.50;1.00
17918;DHT22;9084;50.956;3.106;2022-07-04T12:05:20;25.50;99.90
17918;DHT22;9084;50.956;3.106;2022-07-04T12:07:49;25.30;99.90
17918;DHT22;9084;50.956;3.106;2022-07-04T12:10:21;25.10;1.00
17918;DHT22;9084;50.956;3.106;2022-07-04T12:13:06;25.00;99.90
17918;DHT22;9084;50.956;3.106;2022-07-04T12:15:41;24.80;99.90
17918;DHT22;9084;50.956;3.106;2022-07-04T12:18:23;25.10;1.00
17918;DHT22;9084;50.956;3.106;2022-07-04T12:21:13;25.00;1.00
17918;DHT22;9084;50.956;3.106;2022-07-04T12:23:51;25.00;1.00
17918;DHT22;9084;50.956;3.106;2022-07-04T12:26:17;25.00;99.90
17918;DHT22;9084;50.956;3.106;2022-07-04T12:28:45;25.00;87.30
17918;DHT22;9084;50.956;3.106;2022-07-04T12:31:14;25.00;16.30
17918;DHT22;9084;50.956;3.106;2022-07-04T12:33:54;24.90;99.90
17918;DHT22;9084;50.956;3.106;2022-07-04T12:36:22;25.00;1.00
17918;DHT22;9084;50.956;3.106;2022-07-04T12:38:48;25.00;1.00
17918;DHT22;9084;50.956;3.106;2022-07-04T12:41:14;24.90;99.90
17918;DHT22;9084;50.956;3.106;2022-07-04T12:46:08;24.80;1.00
17918;DHT22;9084;50.956;3.106;2022-07-04T12:48:38;24.70;99.90
17918;DHT22;9084;50.956;3.106;2022-07-04T12:51:19;24.60;1.00
17918;DHT22;9084;50.956;3.106;2022-07-04T12:53:47;24.60;1.00
17918;DHT22;9084;50.956;3.106;2022-07-04T12:56:30;24.80;99.90
17918;DHT22;9084;50.956;3.106;2022-07-04T12:58:57;25.00;99.90
17918;DHT22;9084;50.956;3.106;2022-07-04T13:01:23;25.10;1.00
17918;DHT22;9084;50.956;3.106;2022-07-04T13:03:49;25.30;1.00
17918;DHT22;9084;50.956;3.106;2022-07-04T13:06:18;25.40;26.30
17918;DHT22;9084;50.956;3.106;2022-07-04T13:08:47;25.70;1.00
17918;DHT22;9084;50.956;3.106;2022-07-04T13:11:12;25.70;1.00
17918;DHT22;9084;50.956;3.106;2022-07-04T13:13:57;25.90;1.00
17918;DHT22;9084;50.956;3.106;2022-07-04T13:16:22;25.90;1.00
17918;DHT22;9084;50.956;3.106;2022-07-04T13:18:48;25.80;1.00
17918;DHT22;9084;50.956;3.106;2022-07-04T13:21:19;25.50;1.00
17918;DHT22;9084;50.956;3.106;2022-07-04T13:23:47;25.20;1.00
17918;DHT22;9084;50.956;3.106;2022-07-04T13:26:16;25.20;99.90
17918;DHT22;9084;50.956;3.106;2022-07-04T13:28:43;25.30;1.00
17918;DHT22;9084;50.956;3.106;2022-07-04T13:31:13;25.70;1.00
17918;DHT22;9084;50.956;3.106;2022-07-04T13:33:39;26.20;99.90
17918;DHT22;9084;50.956;3.106;2022-07-04T13:36:10;26.80;99.90
17918;DHT22;9084;50.956;3.106;2022-07-04T13:38:38;27.20;99.90
17918;DHT22;9084;50.956;3.106;2022-07-04T13:41:06;27.40;99.90
17918;DHT22;9084;50.956;3.106;2022-07-04T13:43:34;27.50;12.30
17918;DHT22;9084;50.956;3.106;2022-07-04T13:46:00;27.50;1.00
17918;DHT22;9084;50.956;3.106;2022-07-04T13:48:28;27.30;1.00
17918;DHT22;9084;50.956;3.106;2022-07-04T13:50:56;27.30;1.00
17918;DHT22;9084;50.956;3.106;2022-07-04T13:53:24;27.20;1.00
17918;DHT22;9084;50.956;3.106;2022-07-04T13:55:50;27.20;1.00
17918;DHT22;9084;50.956;3.106;2022-07-04T13:58:16;27.10;1.00
17918;DHT22;9084;50.956;3.106;2022-07-04T14:00:42;26.90;1.00
17918;DHT22;9084;50.956;3.106;2022-07-04T14:03:12;26.60;99.90
17918;DHT22;9084;50.956;3.106;2022-07-04T14:05:41;26.30;99.90
17918;DHT22;9084;50.956;3.106;2022-07-04T14:08:06;26.10;1.00
17918;DHT22;9084;50.956;3.106;2022-07-04T14:10:32;26.10;1.00
17918;DHT22;9084;50.956;3.106;2022-07-04T14:12:58;26.00;1.00
17918;DHT22;9084;50.956;3.106;2022-07-04T14:15:23;26.10;15.90
17918;DHT22;9084;50.956;3.106;2022-07-04T14:17:49;26.10;58.80
17918;DHT22;9084;50.956;3.106;2022-07-04T14:20:15;26.10;99.90
17918;DHT22;9084;50.956;3.106;2022-07-04T14:22:44;26.00;1.00
17918;DHT22;9084;50.956;3.106;2022-07-04T14:25:10;25.90;99.90
17918;DHT22;9084;50.956;3.106;2022-07-04T14:27:36;25.80;1.00
17918;DHT22;9084;50.956;3.106;2022-07-04T14:30:05;25.60;1.00
17918;DHT22;9084;50.956;3.106;2022-07-04T14:32:32;25.60;92.60
17918;DHT22;9084;50.956;3.106;2022-07-04T14:34:57;25.90;99.90
17918;DHT22;9084;50.956;3.106;2022-07-04T14:37:25;26.20;1.00
17918;DHT22;9084;50.956;3.106;2022-07-04T14:39:54;26.50;1.00
17918;DHT22;9084;50.956;3.106;2022-07-04T14:42:22;26.70;99.90
17918;DHT22;9084;50.956;3.106;2022-07-04T14:44:47;26.90;1.00
17918;DHT22;9084;50.956;3.106;2022-07-04T14:47:13;26.90;1.00
17918;DHT22;9084;50.956;3.106;2022-07-04T14:49:40;26.70;99.90
17918;DHT22;9084;50.956;3.106;2022-07-04T14:52:06;26.40;1.00
17918;DHT22;9084;50.956;3.106;2022-07-04T14:54:36;26.30;1.00
17918;DHT22;9084;50.956;3.106;2022-07-04T14:57:02;26.10;1.00
17918;DHT22;9084;50.956;3.106;2022-07-04T14:59:28;25.80;1.00
17918;DHT22;9084;50.956;3.106;2022-07-04T15:01:56;25.80;99.90
17918;DHT22;9084;50.956;3.106;2022-07-04T15:04:23;25.80;1.00
17918;DHT22;9084;50.956;3.106;2022-07-04T15:06:49;25.70;1.00
17918;DHT22;9084;50.956;3.106;2022-07-04T15:09:15;25.60;12.90
17918;DHT22;9084;50.956;3.106;2022-07-04T15:11:52;25.50;1.00
17918;DHT22;9084;50.956;3.106;2022-07-04T15:14:20;25.40;56.30
17918;DHT22;9084;50.956;3.106;2022-07-04T15:16:45;25.30;1.00
17918;DHT22;9084;50.956;3.106;2022-07-04T15:19:11;25.20;1.00
17918;DHT22;9084;50.956;3.106;2022-07-04T15:21:40;25.20;1.00
17918;DHT22;9084;50.956;3.106;2022-07-04T15:24:24;25.20;99.90
17918;DHT22;9084;50.956;3.106;2022-07-04T15:26:52;25.20;1.00
17918;DHT22;9084;50.956;3.106;2022-07-04T15:29:22;25.20;99.90
17918;DHT22;9084;50.956;3.106;2022-07-04T15:31:49;25.20;99.90
17918;DHT22;9084;50.956;3.106;2022-07-04T15:34:16;25.10;1.00
17918;DHT22;9084;50.956;3.106;2022-07-04T15:36:43;25.20;99.90
17918;DHT22;9084;50.956;3.106;2022-07-04T15:39:11;25.30;1.00
17918;DHT22;9084;50.956;3.106;2022-07-04T15:41:37;25.00;99.90
17918;DHT22;9084;50.956;3.106;2022-07-04T15:44:04;24.80;1.00
17918;DHT22;9084;50.956;3.106;2022-07-04T15:46:30;24.70;6.60
17918;DHT22;9084;50.956;3.106;2022-07-04T15:48:56;24.70;99.90
17918;DHT22;9084;50.956;3.106;2022-07-04T15:51:23;24.60;56.60
17918;DHT22;9084;50.956;3.106;2022-07-04T15:53:50;24.60;99.90
17918;DHT22;9084;50.956;3.106;2022-07-04T15:56:15;24.50;1.00
17918;DHT22;9084;50.956;3.106;2022-07-04T15:58:41;24.30;1.00
17918;DHT22;9084;50.956;3.106;2022-07-04T16:01:12;24.30;99.90
17918;DHT22;9084;50.956;3.106;2022-07-04T16:03:40;24.20;99.90
17918;DHT22;9084;50.956;3.106;2022-07-04T16:06:06;24.30;99.90
17918;DHT22;9084;50.956;3.106;2022-07-04T16:08:34;24.30;1.00
17918;DHT22;9084;50.956;3.106;2022-07-04T16:11:00;24.30;1.00
17918;DHT22;9084;50.956;3.106;2022-07-04T16:13:29;24.30;99.90
17918;DHT22;9084;50.956;3.106;2022-07-04T16:15:54;24.30;1.00
17918;DHT22;9084;50.956;3.106;2022-07-04T16:18:22;24.30;1.00